Time;durP1;ratioP1;P1;durP2;ratioP2;P2;SDS_P1;SDS_P2;PMS_P1;PMS_P2;Temp;Humidity;BMP_temperature;BMP_pressure;BME280_temperature;BME280_humidity;BME280_pressure;Samples;Min_cycle;Max_cycle;Signal;HPM_P1;HPM_P2
2022/12/12 00:00:23;;;;;;;43.53;22.83;;;;;;;;;;5012302;28;88990;-66
2022/12/12 00:02:50;;;;;;;41.50;20.48;;;;;;;;;;4996981;28;90081;-66
2022/12/12 00:05:17;;;;;;;40.55;20.20;;;;;;;;;;4999125;28;89577;-67
2022/12/12 00:07:44;;;;;;;48.80;22.48;;;;;;;;;;4996195;28;91133;-66
2022/12/12 00:10:11;;;;;;;49.58;23.73;;;;;;;;;;4996275;28;89918;-66
2022/12/12 00:12:37;;;;;;;51.53;26.63;;;;;;;;;;4995669;28;89701;-66
2022/12/12 00:15:03;;;;;;;44.83;25.50;;;;;;;;;;4997022;28;91217;-66
2022/12/12 00:17:30;;;;;;;44.83;22.83;;;;;;;;;;5015985;28;89872;-66
2022/12/12 00:19:56;;;;;;;40.65;21.83;;;;;;;;;;5016072;28;89358;-66
2022/12/12 00:22:22;;;;;;;43.05;21.38;;;;;;;;;;5015690;28;90141;-66
2022/12/12 00:24:49;;;;;;;35.63;20.45;;;;;;;;;;5015548;28;89919;-67
2022/12/12 00:27:15;;;;;;;39.63;20.95;;;;;;;;;;5017694;28;90010;-66
2022/12/12 00:29:41;;;;;;;33.70;19.48;;;;;;;;;;5016230;28;89532;-66
2022/12/12 00:32:07;;;;;;;34.85;19.13;;;;;;;;;;5015789;28;89311;-67
2022/12/12 00:34:34;;;;;;;34.40;19.40;;;;;;;;;;5015874;28;89871;-67
2022/12/12 00:37:00;;;;;;;35.22;18.85;;;;;;;;;;5015148;28;89292;-66
2022/12/12 00:39:26;;;;;;;36.22;20.42;;;;;;;;;;5016136;28;91318;-67
2022/12/12 00:41:53;;;;;;;43.50;21.33;;;;;;;;;;5015613;28;91462;-67
2022/12/12 00:44:19;;;;;;;37.22;19.95;;;;;;;;;;5015739;28;89510;-66
2022/12/12 00:46:46;;;;;;;34.88;20.58;;;;;;;;;;5015588;28;90252;-66
2022/12/12 00:49:13;;;;;;;35.88;19.90;;;;;;;;;;5018201;28;89178;-67
2022/12/12 00:51:39;;;;;;;37.15;20.60;;;;;;;;;;5015902;28;91101;-66
2022/12/12 00:54:05;;;;;;;43.47;21.17;;;;;;;;;;5016272;28;90124;-66
2022/12/12 00:56:32;;;;;;;35.00;20.45;;;;;;;;;;5015350;28;89605;-67
2022/12/12 00:58:58;;;;;;;35.58;20.15;;;;;;;;;;5015257;28;89045;-66
2022/12/12 01:01:26;;;;;;;34.50;19.15;;;;;;;;;;5015011;28;90153;-66
2022/12/12 01:03:53;;;;;;;31.73;19.58;;;;;;;;;;5015417;28;89600;-67
2022/12/12 01:06:20;;;;;;;33.55;19.38;;;;;;;;;;5013459;28;89185;-67
2022/12/12 01:08:46;;;;;;;31.42;17.90;;;;;;;;;;5018383;28;89638;-66
2022/12/12 01:11:13;;;;;;;33.40;19.63;;;;;;;;;;5016989;28;90198;-67
2022/12/12 01:13:40;;;;;;;39.08;18.95;;;;;;;;;;5019066;28;91125;-66
2022/12/12 01:16:07;;;;;;;33.20;20.35;;;;;;;;;;5018412;28;89201;-66
2022/12/12 01:18:34;;;;;;;34.03;20.02;;;;;;;;;;5019181;28;92031;-67
2022/12/12 01:21:00;;;;;;;36.78;20.15;;;;;;;;;;5018536;28;89787;-66
2022/12/12 01:23:26;;;;;;;31.05;19.15;;;;;;;;;;5018405;28;89491;-66
2022/12/12 01:26:03;;;;;;;33.33;19.75;;;;;;;;;;5018203;28;90798;-66
2022/12/12 01:28:29;;;;;;;35.60;19.67;;;;;;;;;;5018578;28;90354;-66
2022/12/12 01:30:56;;;;;;;37.60;21.40;;;;;;;;;;5020015;28;89702;-66
2022/12/12 01:33:22;;;;;;;33.53;19.90;;;;;;;;;;5016850;28;90121;-67
2022/12/12 01:35:49;;;;;;;35.83;21.08;;;;;;;;;;5018329;28;89575;-67
2022/12/12 01:38:15;;;;;;;35.75;20.75;;;;;;;;;;5018400;28;89190;-66
2022/12/12 01:40:41;;;;;;;31.63;19.45;;;;;;;;;;5017067;28;89733;-67
2022/12/12 01:43:10;;;;;;;35.72;21.10;;;;;;;;;;5018324;28;89361;-67
2022/12/12 01:46:14;;;;;;;32.00;19.35;;;;;;;;;;5018119;28;89008;-66
2022/12/12 01:48:44;;;;;;;31.05;19.33;;;;;;;;;;5018193;28;90782;-67
2022/12/12 01:51:13;;;;;;;33.92;19.23;;;;;;;;;;5017666;28;89804;-66
2022/12/12 01:53:40;;;;;;;37.35;20.67;;;;;;;;;;5021083;28;89020;-66
2022/12/12 01:56:11;;;;;;;39.10;20.60;;;;;;;;;;5018192;28;90423;-67
2022/12/12 01:58:41;;;;;;;39.00;21.33;;;;;;;;;;5018023;28;89967;-66
2022/12/12 02:01:08;;;;;;;39.70;21.45;;;;;;;;;;5014107;28;90119;-66
2022/12/12 02:03:35;;;;;;;40.08;20.80;;;;;;;;;;4998711;28;90666;-66
2022/12/12 02:06:04;;;;;;;37.90;21.05;;;;;;;;;;4997495;28;89319;-66
2022/12/12 02:08:31;;;;;;;34.25;19.52;;;;;;;;;;4998176;28;89970;-66
2022/12/12 02:10:57;;;;;;;36.33;21.20;;;;;;;;;;4997359;28;89643;-66
2022/12/12 02:13:25;;;;;;;34.15;18.80;;;;;;;;;;4996399;28;89093;-66
2022/12/12 02:16:14;;;;;;;31.52;19.25;;;;;;;;;;5008041;28;89058;-67
2022/12/12 02:18:58;;;;;;;36.45;19.98;;;;;;;;;;5017733;28;88881;-67
2022/12/12 02:21:34;;;;;;;34.85;19.42;;;;;;;;;;5017530;28;90059;-66
2022/12/12 02:24:19;;;;;;;34.00;19.83;;;;;;;;;;5017959;28;90542;-66
2022/12/12 02:26:51;;;;;;;37.60;19.92;;;;;;;;;;5017489;28;89451;-66
2022/12/12 02:29:36;;;;;;;33.03;19.98;;;;;;;;;;5017605;28;88865;-67
2022/12/12 02:32:08;;;;;;;33.10;20.05;;;;;;;;;;5017411;28;89607;-66
2022/12/12 02:34:37;;;;;;;39.90;20.13;;;;;;;;;;5017848;28;89154;-67
2022/12/12 02:37:09;;;;;;;38.80;20.20;;;;;;;;;;5017178;28;89831;-66
2022/12/12 02:39:36;;;;;;;38.78;20.08;;;;;;;;;;5020407;28;89918;-67
2022/12/12 02:42:05;;;;;;;37.03;19.98;;;;;;;;;;5016760;28;90000;-67
2022/12/12 02:44:34;;;;;;;33.03;19.30;;;;;;;;;;5017538;28;89753;-66
2022/12/12 02:47:19;;;;;;;35.83;19.10;;;;;;;;;;5017092;28;89061;-67
2022/12/12 02:49:45;;;;;;;33.03;19.02;;;;;;;;;;5017222;28;90005;-66
2022/12/12 02:52:12;;;;;;;34.90;19.88;;;;;;;;;;5017055;28;89462;-66
2022/12/12 02:54:38;;;;;;;35.30;19.02;;;;;;;;;;5016835;28;89105;-67
2022/12/12 02:57:12;;;;;;;35.08;18.92;;;;;;;;;;5016881;28;90096;-67
2022/12/12 02:59:43;;;;;;;33.28;18.23;;;;;;;;;;5020507;28;89847;-67
2022/12/12 03:02:27;;;;;;;34.53;20.15;;;;;;;;;;5016777;28;90054;-66
2022/12/12 03:07:59;;;;;;;33.83;19.35;;;;;;;;;;4997977;28;89884;-66
2022/12/12 03:10:29;;;;;;;34.60;19.90;;;;;;;;;;4997167;28;91337;-66
2022/12/12 03:12:59;;;;;;;34.33;18.08;;;;;;;;;;4996944;28;89185;-67
2022/12/12 03:15:28;;;;;;;36.03;19.77;;;;;;;;;;4999569;28;89086;-67
2022/12/12 03:17:54;;;;;;;32.78;18.52;;;;;;;;;;5015498;28;90145;-67
2022/12/12 03:20:21;;;;;;;39.75;19.73;;;;;;;;;;5017179;28;92953;-67
2022/12/12 03:22:56;;;;;;;35.05;19.20;;;;;;;;;;5018417;28;89047;-66
2022/12/12 03:25:25;;;;;;;37.67;19.45;;;;;;;;;;5017372;28;89586;-66
2022/12/12 03:28:08;;;;;;;36.60;19.25;;;;;;;;;;5015052;28;88983;-66
2022/12/12 03:30:42;;;;;;;36.72;19.88;;;;;;;;;;5016813;28;88878;-66
2022/12/12 03:33:19;;;;;;;40.15;20.63;;;;;;;;;;5014584;28;89684;-67
2022/12/12 03:35:46;;;;;;;40.30;19.23;;;;;;;;;;5017230;28;89897;-66
2022/12/12 03:38:15;;;;;;;34.28;19.67;;;;;;;;;;5016304;28;90066;-66
2022/12/12 03:40:53;;;;;;;34.92;20.15;;;;;;;;;;5016701;28;89246;-67
2022/12/12 03:43:25;;;;;;;34.95;20.05;;;;;;;;;;5016558;28;88813;-66
2022/12/12 03:45:51;;;;;;;33.22;18.92;;;;;;;;;;5019248;28;89934;-67
2022/12/12 03:48:22;;;;;;;34.85;20.02;;;;;;;;;;5016216;28;89338;-67
2022/12/12 03:50:59;;;;;;;40.00;19.63;;;;;;;;;;5016464;28;89870;-66
2022/12/12 03:53:31;;;;;;;40.83;21.08;;;;;;;;;;5016337;28;89591;-66
2022/12/12 03:56:05;;;;;;;38.28;20.73;;;;;;;;;;5016464;28;89006;-66
2022/12/12 03:58:41;;;;;;;37.70;20.35;;;;;;;;;;5016163;28;91930;-66
2022/12/12 04:01:10;;;;;;;37.88;20.52;;;;;;;;;;5016230;28;89392;-67
2022/12/12 04:03:55;;;;;;;38.60;20.90;;;;;;;;;;5001800;28;92662;-66
2022/12/12 04:06:27;;;;;;;44.20;21.90;;;;;;;;;;4996192;28;89973;-67
2022/12/12 04:14:42;;;;;;;36.25;20.30;;;;;;;;;;4996040;28;89694;-66
2022/12/12 04:17:13;;;;;;;56.40;20.90;;;;;;;;;;5014310;28;89268;-65
2022/12/12 04:25:34;;;;;;;35.87;21.20;;;;;;;;;;5015542;28;89775;-66
2022/12/12 04:28:04;;;;;;;43.28;21.60;;;;;;;;;;5015693;28;90186;-66
2022/12/12 04:30:31;;;;;;;38.83;21.13;;;;;;;;;;5015693;28;89578;-66
2022/12/12 04:33:04;;;;;;;39.40;20.30;;;;;;;;;;5017554;28;90278;-66
2022/12/12 04:35:32;;;;;;;34.08;19.73;;;;;;;;;;5015716;28;89618;-67
2022/12/12 04:38:04;;;;;;;35.40;19.50;;;;;;;;;;5014374;28;89059;-66
2022/12/12 04:40:46;;;;;;;38.10;20.83;;;;;;;;;;5015757;28;90077;-66
2022/12/12 04:43:27;;;;;;;35.88;19.42;;;;;;;;;;5016165;28;90621;-66
2022/12/12 04:45:56;;;;;;;38.05;20.58;;;;;;;;;;5018137;28;90222;-66
2022/12/12 04:48:27;;;;;;;45.40;21.95;;;;;;;;;;5018967;28;90226;-66
2022/12/12 04:50:53;;;;;;;40.67;20.95;;;;;;;;;;5018683;28;89908;-66
2022/12/12 04:53:24;;;;;;;35.72;19.55;;;;;;;;;;5019010;28;89263;-66
2022/12/12 04:55:54;;;;;;;36.25;20.30;;;;;;;;;;5022010;28;90133;-66
2022/12/12 04:58:20;;;;;;;38.20;21.10;;;;;;;;;;5019040;28;89512;-67
2022/12/12 05:00:58;;;;;;;40.88;20.90;;;;;;;;;;5017383;28;90049;-66
2022/12/12 05:03:24;;;;;;;39.15;20.77;;;;;;;;;;5018830;28;92925;-66
2022/12/12 05:05:56;;;;;;;43.20;20.67;;;;;;;;;;5018716;28;89062;-67
2022/12/12 05:08:26;;;;;;;42.88;21.00;;;;;;;;;;5018555;28;90169;-67
2022/12/12 05:10:57;;;;;;;41.85;20.45;;;;;;;;;;5018733;28;90011;-66
2022/12/12 05:13:27;;;;;;;40.20;20.92;;;;;;;;;;5017610;28;89027;-67
2022/12/12 05:15:55;;;;;;;40.20;20.47;;;;;;;;;;5021303;28;90040;-66
2022/12/12 05:18:21;;;;;;;41.75;21.95;;;;;;;;;;5018558;28;89990;-66
2022/12/12 05:20:48;;;;;;;40.78;22.10;;;;;;;;;;5018578;28;90364;-66
2022/12/12 05:23:15;;;;;;;49.55;22.48;;;;;;;;;;5018857;28;90429;-66
2022/12/12 05:25:41;;;;;;;46.20;22.92;;;;;;;;;;5018667;28;89036;-67
2022/12/12 05:28:07;;;;;;;40.53;20.75;;;;;;;;;;5008040;28;90161;-67
2022/12/12 05:30:34;;;;;;;40.00;21.70;;;;;;;;;;4998419;28;89562;-66
2022/12/12 05:33:00;;;;;;;41.80;21.67;;;;;;;;;;4998433;28;89154;-66
2022/12/12 05:35:27;;;;;;;43.55;21.45;;;;;;;;;;4998370;28;90133;-66
2022/12/12 05:37:53;;;;;;;40.25;19.90;;;;;;;;;;5001222;28;88971;-66
2022/12/12 05:40:20;;;;;;;40.63;21.92;;;;;;;;;;4996994;28;91093;-66
2022/12/12 05:42:47;;;;;;;38.08;21.00;;;;;;;;;;4996980;28;89852;-67
2022/12/12 05:45:13;;;;;;;42.42;21.90;;;;;;;;;;5000685;28;90344;-67
2022/12/12 05:47:40;;;;;;;46.63;23.17;;;;;;;;;;5018332;28;94909;-66
2022/12/12 05:50:06;;;;;;;44.33;22.95;;;;;;;;;;5017956;28;89765;-66
2022/12/12 05:52:33;;;;;;;38.92;21.60;;;;;;;;;;5018210;28;90525;-66
2022/12/12 05:54:59;;;;;;;43.20;23.35;;;;;;;;;;5017962;28;90091;-66
2022/12/12 05:57:26;;;;;;;42.97;23.08;;;;;;;;;;5017763;28;89845;-66
2022/12/12 05:59:52;;;;;;;42.65;21.58;;;;;;;;;;5020944;28;89276;-66
2022/12/12 06:02:18;;;;;;;40.25;22.42;;;;;;;;;;5017440;28;91355;-66
2022/12/12 06:04:45;;;;;;;42.85;23.00;;;;;;;;;;5016234;28;90321;-66
2022/12/12 06:07:11;;;;;;;47.20;22.23;;;;;;;;;;5017551;28;90083;-67
2022/12/12 06:09:37;;;;;;;40.20;22.02;;;;;;;;;;5017601;28;90071;-66
2022/12/12 06:12:04;;;;;;;49.25;22.75;;;;;;;;;;5016450;28;89474;-66
2022/12/12 06:14:30;;;;;;;50.38;21.17;;;;;;;;;;5016517;28;91086;-65
2022/12/12 06:16:56;;;;;;;39.60;22.27;;;;;;;;;;5017452;28;89562;-66
2022/12/12 06:19:22;;;;;;;54.58;22.95;;;;;;;;;;5017624;28;89131;-66
2022/12/12 06:21:49;;;;;;;40.65;22.40;;;;;;;;;;5020993;28;90446;-66
2022/12/12 06:24:15;;;;;;;41.17;22.40;;;;;;;;;;5017743;28;89065;-66
2022/12/12 06:26:41;;;;;;;51.47;24.50;;;;;;;;;;5016610;28;91117;-67
2022/12/12 06:29:08;;;;;;;51.28;23.90;;;;;;;;;;5016758;28;89369;-66
2022/12/12 06:31:34;;;;;;;51.38;24.90;;;;;;;;;;5017503;28;89011;-66
2022/12/12 06:34:00;;;;;;;42.70;22.08;;;;;;;;;;5017434;28;90095;-66
2022/12/12 06:36:27;;;;;;;47.85;23.05;;;;;;;;;;5017397;28;90031;-67
2022/12/12 06:38:54;;;;;;;53.63;23.95;;;;;;;;;;5017280;28;88926;-65
2022/12/12 06:41:22;;;;;;;52.38;23.63;;;;;;;;;;5017440;28;90196;-66
2022/12/12 06:43:49;;;;;;;45.83;23.52;;;;;;;;;;5020070;28;89652;-66
2022/12/12 06:46:17;;;;;;;50.88;24.35;;;;;;;;;;5017643;28;90098;-66
2022/12/12 06:48:43;;;;;;;40.75;22.35;;;;;;;;;;5017194;28;89921;-66
2022/12/12 06:51:11;;;;;;;38.90;21.48;;;;;;;;;;5017313;28;90143;-66
2022/12/12 06:53:38;;;;;;;51.13;23.02;;;;;;;;;;5016985;28;91214;-67
2022/12/12 06:56:05;;;;;;;43.58;21.88;;;;;;;;;;5017319;28;90926;-66
2022/12/12 06:58:32;;;;;;;44.17;21.95;;;;;;;;;;5016858;28;88992;-66
2022/12/12 07:00:58;;;;;;;43.42;22.02;;;;;;;;;;5016875;28;90096;-66
2022/12/12 07:03:24;;;;;;;43.63;21.98;;;;;;;;;;5016870;28;89220;-66
2022/12/12 07:05:50;;;;;;;49.50;21.65;;;;;;;;;;5020090;28;89986;-66
2022/12/12 07:08:17;;;;;;;43.85;23.05;;;;;;;;;;5016010;28;89548;-66
2022/12/12 07:10:43;;;;;;;43.38;22.85;;;;;;;;;;5017069;28;89020;-66
2022/12/12 07:13:09;;;;;;;46.90;23.58;;;;;;;;;;5016816;28;89914;-66
2022/12/12 07:15:42;;;;;;;44.25;21.88;;;;;;;;;;5016788;28;89594;-66
2022/12/12 07:18:08;;;;;;;43.95;21.42;;;;;;;;;;5016507;28;90028;-66
2022/12/12 07:20:39;;;;;;;41.85;21.38;;;;;;;;;;5016645;28;90314;-66
2022/12/12 07:23:05;;;;;;;44.95;22.77;;;;;;;;;;5016862;28;89608;-66
2022/12/12 07:25:32;;;;;;;44.00;22.95;;;;;;;;;;5018120;28;89633;-66
2022/12/12 07:27:58;;;;;;;42.90;22.88;;;;;;;;;;5014379;28;92105;-66
2022/12/12 07:30:24;;;;;;;51.33;25.63;;;;;;;;;;4996909;28;89023;-66
2022/12/12 07:32:51;;;;;;;46.25;23.60;;;;;;;;;;4996658;28;90042;-66
2022/12/12 07:35:17;;;;;;;44.42;23.02;;;;;;;;;;4995703;28;89535;-66
2022/12/12 07:37:43;;;;;;;46.20;25.42;;;;;;;;;;4995505;28;90081;-66
2022/12/12 07:40:09;;;;;;;46.22;24.70;;;;;;;;;;4996384;28;88912;-66
2022/12/12 07:42:36;;;;;;;50.35;26.67;;;;;;;;;;4996082;28;90314;-66
2022/12/12 07:45:02;;;;;;;49.63;28.25;;;;;;;;;;4997217;28;89411;-66
2022/12/12 07:47:28;;;;;;;49.00;28.70;;;;;;;;;;5019156;28;90350;-66
2022/12/12 07:49:55;;;;;;;44.63;23.17;;;;;;;;;;5016141;28;89445;-66
2022/12/12 07:52:21;;;;;;;48.10;23.98;;;;;;;;;;5016354;28;89803;-66
2022/12/12 07:54:47;;;;;;;50.20;25.80;;;;;;;;;;5015849;28;89675;-66
2022/12/12 07:57:14;;;;;;;51.92;25.40;;;;;;;;;;5016266;28;89157;-66
2022/12/12 07:59:40;;;;;;;44.53;22.55;;;;;;;;;;5016648;28;90236;-67
2022/12/12 08:02:08;;;;;;;49.20;24.42;;;;;;;;;;5001352;28;89633;-66
2022/12/12 08:04:34;;;;;;;48.25;23.25;;;;;;;;;;5016176;28;88989;-66
2022/12/12 08:07:00;;;;;;;49.65;22.42;;;;;;;;;;5007530;28;89982;-66
2022/12/12 08:09:34;;;;;;;42.65;21.85;;;;;;;;;;4998915;28;89617;-67
2022/12/12 08:12:00;;;;;;;44.60;22.88;;;;;;;;;;4996025;28;90115;-66
2022/12/12 08:14:27;;;;;;;44.08;22.23;;;;;;;;;;4996032;28;89587;-66
2022/12/12 08:16:54;;;;;;;44.78;22.48;;;;;;;;;;5012016;28;89050;-66
2022/12/12 08:19:20;;;;;;;45.83;23.45;;;;;;;;;;5008817;28;90126;-66
2022/12/12 08:21:46;;;;;;;45.83;22.77;;;;;;;;;;4999506;28;90925;-66
2022/12/12 08:24:14;;;;;;;47.25;23.85;;;;;;;;;;4999731;28;88951;-66
2022/12/12 08:26:40;;;;;;;48.80;24.30;;;;;;;;;;4999712;28;91187;-66
2022/12/12 08:29:07;;;;;;;51.60;24.10;;;;;;;;;;4999096;28;89737;-66
2022/12/12 08:31:34;;;;;;;55.15;24.27;;;;;;;;;;5002086;28;90760;-66
2022/12/12 08:34:00;;;;;;;56.85;25.70;;;;;;;;;;4999445;28;89997;-65
2022/12/12 08:36:31;;;;;;;57.30;25.77;;;;;;;;;;4999262;28;90170;-66
2022/12/12 08:39:00;;;;;;;49.53;24.77;;;;;;;;;;4999394;28;90016;-66
2022/12/12 08:41:26;;;;;;;49.90;25.48;;;;;;;;;;4998966;28;89465;-66
2022/12/12 08:43:53;;;;;;;57.10;27.15;;;;;;;;;;4999070;28;89165;-66
2022/12/12 08:46:20;;;;;;;48.95;24.23;;;;;;;;;;5010751;28;90329;-66
2022/12/12 08:48:47;;;;;;;45.20;24.45;;;;;;;;;;5017960;28;89934;-66
2022/12/12 08:51:14;;;;;;;45.13;23.60;;;;;;;;;;5018777;28;89062;-66
2022/12/12 08:53:42;;;;;;;49.13;25.23;;;;;;;;;;5022160;28;90321;-66
2022/12/12 08:56:08;;;;;;;50.35;24.42;;;;;;;;;;5007339;28;89845;-66
2022/12/12 08:58:35;;;;;;;51.03;24.90;;;;;;;;;;4999346;28;91404;-66
2022/12/12 09:01:01;;;;;;;53.10;25.45;;;;;;;;;;4999114;28;90693;-65
2022/12/12 09:03:27;;;;;;;50.67;25.70;;;;;;;;;;4998156;28;89092;-66
2022/12/12 09:05:55;;;;;;;56.38;25.50;;;;;;;;;;4998727;28;90553;-66
2022/12/12 09:08:21;;;;;;;50.70;25.98;;;;;;;;;;4998628;28;89539;-66
2022/12/12 09:10:48;;;;;;;55.30;26.65;;;;;;;;;;4998552;28;89215;-66
2022/12/12 09:13:15;;;;;;;47.38;25.25;;;;;;;;;;4999312;28;91110;-66
2022/12/12 09:15:41;;;;;;;46.35;24.80;;;;;;;;;;5008047;28;90715;-66
2022/12/12 09:18:07;;;;;;;49.00;23.95;;;;;;;;;;5018589;28;90404;-66
2022/12/12 09:20:34;;;;;;;49.20;23.60;;;;;;;;;;5018148;28;89592;-66
2022/12/12 09:23:00;;;;;;;54.90;24.70;;;;;;;;;;5018711;28;88856;-66
2022/12/12 09:25:26;;;;;;;43.90;23.95;;;;;;;;;;5017427;28;90290;-67
2022/12/12 09:27:52;;;;;;;43.83;22.88;;;;;;;;;;5018758;28;92872;-66
2022/12/12 09:30:20;;;;;;;45.85;23.27;;;;;;;;;;5017757;28;90103;-64
2022/12/12 09:32:47;;;;;;;50.30;23.15;;;;;;;;;;5018685;28;90174;-66
2022/12/12 09:35:13;;;;;;;54.17;26.33;;;;;;;;;;5021501;28;91027;-61
2022/12/12 09:37:40;;;;;;;45.35;25.95;;;;;;;;;;5018583;28;89222;-61
2022/12/12 09:40:07;;;;;;;46.65;24.27;;;;;;;;;;5018814;28;90960;-62
2022/12/12 09:42:34;;;;;;;45.30;21.05;;;;;;;;;;5018312;28;89212;-61
2022/12/12 09:45:02;;;;;;;44.60;23.67;;;;;;;;;;5017925;28;90196;-61
2022/12/12 09:47:33;;;;;;;44.42;22.38;;;;;;;;;;5018215;28;92397;-62
2022/12/12 09:50:02;;;;;;;43.88;22.95;;;;;;;;;;5018255;28;90025;-62
2022/12/12 09:52:30;;;;;;;41.27;21.53;;;;;;;;;;5018184;28;90015;-62
2022/12/12 09:55:02;;;;;;;39.72;21.05;;;;;;;;;;5018232;28;89597;-62
2022/12/12 09:57:28;;;;;;;39.20;21.88;;;;;;;;;;5020646;28;89222;-62
2022/12/12 09:59:57;;;;;;;44.03;21.17;;;;;;;;;;5017959;28;89641;-61
2022/12/12 10:02:41;;;;;;;34.45;18.20;;;;;;;;;;5017628;28;89379;-62
2022/12/12 10:05:18;;;;;;;36.35;19.38;;;;;;;;;;5016696;28;90161;-61
2022/12/12 10:07:54;;;;;;;38.88;19.50;;;;;;;;;;5018159;28;89922;-62
2022/12/12 10:10:30;;;;;;;43.42;19.58;;;;;;;;;;5017818;28;89843;-62
2022/12/12 10:12:57;;;;;;;40.08;19.50;;;;;;;;;;5017771;28;91107;-62
2022/12/12 10:15:38;;;;;;;34.33;18.80;;;;;;;;;;5016715;28;90528;-62
2022/12/12 10:18:04;;;;;;;;;;;;;;;;;;5017189;28;89182;-62
2022/12/12 10:20:32;;;;;;;31.92;17.75;;;;;;;;;;5022078;28;121254;-62
2022/12/12 10:23:10;;;;;;;39.88;18.83;;;;;;;;;;5017807;28;90210;-62
2022/12/12 10:25:48;;;;;;;34.15;18.73;;;;;;;;;;5017622;28;89918;-62
2022/12/12 10:28:16;;;;;;;34.63;18.75;;;;;;;;;;5017912;28;89870;-62
2022/12/12 10:30:54;;;;;;;33.45;19.88;;;;;;;;;;5016411;28;89146;-62
2022/12/12 10:33:35;;;;;;;34.67;17.35;;;;;;;;;;5017599;28;89799;-62
2022/12/12 10:36:13;;;;;;;32.97;18.00;;;;;;;;;;5017380;28;89637;-62
2022/12/12 10:38:39;;;;;;;32.72;17.13;;;;;;;;;;5016262;28;89647;-62
2022/12/12 10:41:29;;;;;;;31.83;18.20;;;;;;;;;;5017521;28;90076;-62
2022/12/12 10:44:24;;;;;;;30.38;17.15;;;;;;;;;;4996589;28;89496;-62
2022/12/12 10:47:04;;;;;;;27.88;16.48;;;;;;;;;;4982160;28;90047;-63
2022/12/12 10:49:31;;;;;;;30.63;16.33;;;;;;;;;;4994799;28;89641;-62
2022/12/12 10:51:59;;;;;;;28.48;16.10;;;;;;;;;;4994615;28;89025;-62
2022/12/12 10:54:26;;;;;;;27.25;15.73;;;;;;;;;;4995238;28;90886;-62
2022/12/12 10:57:12;;;;;;;32.00;17.10;;;;;;;;;;4994894;28;90718;-62
2022/12/12 10:59:48;;;;;;;25.95;16.75;;;;;;;;;;4994654;28;89384;-63
2022/12/12 11:02:20;;;;;;;25.92;16.42;;;;;;;;;;4980009;28;90156;-62
2022/12/12 11:04:47;;;;;;;28.65;17.45;;;;;;;;;;4974614;28;89578;-63
2022/12/12 11:07:19;;;;;;;26.80;16.83;;;;;;;;;;4977395;28;90036;-62
2022/12/12 11:09:46;;;;;;;30.30;16.30;;;;;;;;;;4974516;28;89237;-62
2022/12/12 11:12:13;;;;;;;30.02;17.85;;;;;;;;;;4974854;28;90072;-63
2022/12/12 11:14:44;;;;;;;31.35;16.88;;;;;;;;;;4974438;28;90033;-62
2022/12/12 11:17:30;;;;;;;26.90;16.88;;;;;;;;;;4993219;28;89569;-62
2022/12/12 11:19:57;;;;;;;26.75;17.85;;;;;;;;;;4995038;28;89918;-63
2022/12/12 11:22:25;;;;;;;29.15;18.15;;;;;;;;;;4995254;28;90046;-63
2022/12/12 11:24:51;;;;;;;25.55;16.92;;;;;;;;;;4996652;28;89345;-63
2022/12/12 11:27:20;;;;;;;27.70;16.60;;;;;;;;;;4996395;28;89827;-63
2022/12/12 11:29:48;;;;;;;25.98;17.23;;;;;;;;;;4999450;28;89189;-63
2022/12/12 11:32:19;;;;;;;24.63;16.05;;;;;;;;;;4996553;28;89442;-63
2022/12/12 11:34:51;;;;;;;22.42;15.80;;;;;;;;;;4996501;28;90096;-62
2022/12/12 11:37:19;;;;;;;28.13;15.40;;;;;;;;;;4996405;28;90086;-62
2022/12/12 11:39:48;;;;;;;24.92;15.85;;;;;;;;;;4996619;28;89046;-63
2022/12/12 11:42:14;;;;;;;24.05;16.02;;;;;;;;;;4996785;28;89432;-63
2022/12/12 11:44:42;;;;;;;25.23;15.57;;;;;;;;;;4996413;28;90160;-63
2022/12/12 11:47:17;;;;;;;26.50;15.38;;;;;;;;;;5014466;28;89337;-63
2022/12/12 11:49:50;;;;;;;28.92;16.08;;;;;;;;;;5019048;28;90382;-63
2022/12/12 11:52:18;;;;;;;24.52;16.73;;;;;;;;;;5016066;28;89850;-62
2022/12/12 11:54:45;;;;;;;23.90;15.65;;;;;;;;;;5015887;28;90283;-63
2022/12/12 11:57:14;;;;;;;20.88;14.25;;;;;;;;;;5016477;28;90612;-62
2022/12/12 11:59:48;;;;;;;33.28;19.13;;;;;;;;;;5016066;28;88996;-63
2022/12/12 12:02:14;;;;;;;22.80;15.02;;;;;;;;;;5015724;28;90213;-63
2022/12/12 12:04:54;;;;;;;26.27;15.57;;;;;;;;;;5016079;28;90172;-63
2022/12/12 12:07:39;;;;;;;22.85;16.38;;;;;;;;;;5016313;28;90060;-63
2022/12/12 12:10:11;;;;;;;26.27;19.33;;;;;;;;;;5016628;28;90631;-62
2022/12/12 12:12:56;;;;;;;24.90;16.17;;;;;;;;;;5019096;28;89904;-63
2022/12/12 12:15:28;;;;;;;24.02;15.23;;;;;;;;;;5016195;28;91166;-63
2022/12/12 12:17:57;;;;;;;21.50;14.75;;;;;;;;;;5015795;28;89202;-63
2022/12/12 12:20:31;;;;;;;22.30;15.13;;;;;;;;;;5016074;28;89079;-63
2022/12/12 12:23:04;;;;;;;20.38;14.07;;;;;;;;;;5016311;28;92342;-62
2022/12/12 12:25:42;;;;;;;20.85;14.60;;;;;;;;;;5015937;28;89698;-63
2022/12/12 12:28:27;;;;;;;21.42;15.30;;;;;;;;;;5015627;28;89382;-63
2022/12/12 12:30:53;;;;;;;23.30;13.65;;;;;;;;;;5016037;28;90052;-63
2022/12/12 12:33:25;;;;;;;19.63;13.98;;;;;;;;;;5016055;28;90758;-63
2022/12/12 12:36:10;;;;;;;22.08;14.60;;;;;;;;;;5017982;28;88983;-63
2022/12/12 12:38:44;;;;;;;21.57;14.57;;;;;;;;;;5015766;28;89544;-63
2022/12/12 12:41:28;;;;;;;25.02;14.13;;;;;;;;;;5015931;28;89018;-62
2022/12/12 12:44:13;;;;;;;21.45;14.77;;;;;;;;;;5016004;28;90070;-62
2022/12/12 12:46:58;;;;;;;18.65;13.52;;;;;;;;;;5015687;28;89660;-63
2022/12/12 12:49:33;;;;;;;19.10;13.88;;;;;;;;;;5014235;28;88986;-63
2022/12/12 12:52:04;;;;;;;18.80;12.75;;;;;;;;;;5016174;28;91918;-64
2022/12/12 12:54:40;;;;;;;23.02;14.38;;;;;;;;;;5015436;28;89349;-63
2022/12/12 12:57:16;;;;;;;23.42;14.35;;;;;;;;;;5015641;28;89516;-62
2022/12/12 12:59:44;;;;;;;22.20;13.93;;;;;;;;;;5018502;28;90009;-63
2022/12/12 13:02:31;;;;;;;17.60;12.70;;;;;;;;;;5007753;28;89322;-63
2022/12/12 13:04:57;;;;;;;23.73;16.90;;;;;;;;;;4994025;28;89840;-63
2022/12/12 13:07:36;;;;;;;24.60;14.35;;;;;;;;;;4998046;28;89861;-63
2022/12/12 13:10:13;;;;;;;22.20;14.23;;;;;;;;;;4998870;28;90553;-63
2022/12/12 13:12:40;;;;;;;21.65;14.10;;;;;;;;;;4998843;28;90103;-63
2022/12/12 13:15:16;;;;;;;19.85;13.98;;;;;;;;;;5000659;28;91754;-63
2022/12/12 13:18:01;;;;;;;25.85;14.18;;;;;;;;;;5018887;28;90276;-62
2022/12/12 13:20:28;;;;;;;21.92;13.77;;;;;;;;;;5018837;28;91404;-63
2022/12/12 13:23:16;;;;;;;26.52;14.43;;;;;;;;;;5021761;28;89491;-63
2022/12/12 13:25:47;;;;;;;24.77;14.10;;;;;;;;;;5014310;28;90474;-62
2022/12/12 13:28:16;;;;;;;22.02;13.63;;;;;;;;;;5018824;28;89242;-62
2022/12/12 13:30:42;;;;;;;23.52;14.00;;;;;;;;;;5018721;28;88975;-63
2022/12/12 13:33:12;;;;;;;22.17;13.10;;;;;;;;;;5018557;28;91200;-63
2022/12/12 13:35:50;;;;;;;23.23;13.40;;;;;;;;;;5018370;28;90698;-63
2022/12/12 13:38:18;;;;;;;21.98;13.65;;;;;;;;;;5018163;28;89100;-62
2022/12/12 13:40:53;;;;;;;23.08;12.68;;;;;;;;;;5016829;28;89830;-63
2022/12/12 13:43:27;;;;;;;21.83;12.75;;;;;;;;;;5021269;28;89692;-63
2022/12/12 13:45:53;;;;;;;29.80;16.08;;;;;;;;;;5018142;28;89955;-63
2022/12/12 13:48:26;;;;;;;24.15;13.30;;;;;;;;;;5018341;28;89511;-63
2022/12/12 13:51:10;;;;;;;22.45;12.82;;;;;;;;;;5017871;28;89354;-62
2022/12/12 13:53:37;;;;;;;20.23;12.13;;;;;;;;;;5018411;28;89938;-63
2022/12/12 13:56:21;;;;;;;22.67;13.15;;;;;;;;;;5017833;28;89607;-62
2022/12/12 13:58:48;;;;;;;20.35;12.50;;;;;;;;;;5018303;28;89007;-63
2022/12/12 14:01:31;;;;;;;22.38;11.55;;;;;;;;;;5017493;28;90171;-62
2022/12/12 14:03:58;;;;;;;23.13;11.98;;;;;;;;;;5017889;28;89639;-63
2022/12/12 14:06:27;;;;;;;24.38;14.48;;;;;;;;;;5020566;28;89031;-63
2022/12/12 14:08:54;;;;;;;22.17;12.05;;;;;;;;;;5017583;28;89678;-63
2022/12/12 14:11:25;;;;;;;24.63;13.07;;;;;;;;;;5017728;28;89126;-63
2022/12/12 14:14:02;;;;;;;30.92;12.38;;;;;;;;;;5017774;28;90081;-63
2022/12/12 14:16:28;;;;;;;27.00;13.52;;;;;;;;;;5017365;28;89597;-63
2022/12/12 14:18:58;;;;;;;23.45;13.23;;;;;;;;;;5018025;28;89337;-62
2022/12/12 14:21:37;;;;;;;26.65;16.38;;;;;;;;;;5017809;28;90397;-63
2022/12/12 14:24:22;;;;;;;25.15;14.05;;;;;;;;;;5017730;28;89491;-64
2022/12/12 14:26:49;;;;;;;29.30;14.63;;;;;;;;;;5017785;28;93716;-63
2022/12/12 14:29:15;;;;;;;30.25;15.88;;;;;;;;;;5020691;28;90043;-63
2022/12/12 14:32:02;;;;;;;31.05;16.38;;;;;;;;;;5016108;28;89018;-62
2022/12/12 14:34:46;;;;;;;30.27;16.35;;;;;;;;;;5017213;28;90098;-63
2022/12/12 14:37:33;;;;;;;31.52;16.23;;;;;;;;;;5015919;28;89754;-62
2022/12/12 14:40:02;;;;;;;32.63;16.73;;;;;;;;;;5005552;28;89344;-62
2022/12/12 14:42:28;;;;;;;27.60;14.07;;;;;;;;;;5017404;28;90061;-63
2022/12/12 14:45:28;;;;;;;30.50;16.02;;;;;;;;;;5017747;28;89948;-62
2022/12/12 14:48:13;;;;;;;33.35;15.82;;;;;;;;;;5017510;28;88889;-63